createdAt,value
2023-05-20T00:00:53.856Z,6.95
2023-05-20T00:03:21.302Z,7.93
2023-05-20T00:05:48.796Z,7.60
2023-05-20T00:08:15.844Z,2.65
2023-05-20T00:10:42.868Z,3.92
2023-05-20T00:13:10.007Z,4.57
2023-05-20T00:15:37.266Z,4.20
2023-05-20T00:18:07.334Z,5.85
2023-05-20T00:20:34.414Z,7.80
2023-05-20T00:23:01.476Z,4.03
2023-05-20T00:25:28.570Z,4.32
2023-05-20T00:27:55.743Z,7.63
2023-05-20T00:30:23.115Z,12.75
2023-05-20T00:32:50.304Z,8.55
2023-05-20T00:35:17.393Z,5.13
2023-05-20T00:37:44.569Z,7.55
2023-05-20T00:40:13.063Z,4.43
2023-05-20T00:42:42.010Z,4.97
2023-05-20T00:45:09.573Z,10.45
2023-05-20T00:47:39.099Z,5.20
2023-05-20T00:50:07.368Z,6.35
2023-05-20T00:52:35.139Z,4.97
2023-05-20T00:55:02.729Z,5.85
2023-05-20T00:57:30.462Z,7.65
2023-05-20T00:59:57.672Z,5.32
2023-05-20T01:02:25.224Z,6.22
2023-05-20T01:04:53.225Z,6.30
2023-05-20T01:07:20.452Z,4.43
2023-05-20T01:09:47.771Z,7.18
2023-05-20T01:12:30.759Z,7.13
2023-05-20T01:15:27.147Z,4.22
2023-05-20T01:18:01.341Z,5.32
2023-05-20T01:20:32.418Z,5.15
2023-05-20T01:22:59.614Z,5.18
2023-05-20T01:25:27.049Z,11.77
2023-05-20T01:27:55.805Z,5.50
2023-05-20T01:30:29.620Z,11.70
2023-05-20T01:33:01.786Z,26.70
2023-05-20T01:35:30.997Z,13.70
2023-05-20T01:37:59.602Z,10.02
2023-05-20T01:40:27.989Z,8.77
2023-05-20T01:42:56.176Z,10.20
2023-05-20T01:45:24.907Z,9.90
2023-05-20T01:47:52.118Z,7.47
2023-05-20T01:50:19.609Z,10.75
2023-05-20T01:52:46.724Z,9.43
2023-05-20T01:55:14.275Z,7.47
2023-05-20T01:57:42.326Z,9.07
2023-05-20T02:00:11.237Z,5.97
2023-05-20T02:02:41.288Z,7.03
2023-05-20T02:05:10.798Z,7.35
2023-05-20T02:07:37.968Z,5.25
2023-05-20T02:10:05.641Z,3.90
2023-05-20T02:12:32.688Z,5.20
2023-05-20T02:14:59.815Z,5.38
2023-05-20T02:17:26.970Z,7.95
2023-05-20T02:19:54.259Z,4.82
2023-05-20T02:22:21.288Z,12.60
2023-05-20T02:24:48.516Z,9.57
2023-05-20T02:27:16.250Z,4.82
2023-05-20T02:29:44.227Z,6.20
2023-05-20T02:32:12.506Z,4.38
2023-05-20T02:34:39.654Z,10.07
2023-05-20T02:37:06.842Z,5.50
2023-05-20T02:39:34.008Z,5.85
2023-05-20T02:42:01.101Z,3.63
2023-05-20T02:44:28.501Z,8.27
2023-05-20T02:46:56.545Z,3.85
2023-05-20T02:49:24.326Z,3.65
2023-05-20T02:51:52.336Z,10.50
2023-05-20T02:54:19.580Z,9.23
2023-05-20T02:56:46.764Z,6.05
2023-05-20T02:59:13.857Z,4.20
2023-05-20T03:01:41.137Z,5.82
2023-05-20T03:04:08.275Z,4.30
2023-05-20T03:06:35.489Z,15.25
2023-05-20T03:09:02.727Z,4.00
2023-05-20T03:11:30.209Z,8.50
2023-05-20T03:13:57.264Z,6.82
2023-05-20T03:16:25.119Z,5.60
2023-05-20T03:18:52.351Z,7.53
2023-05-20T03:21:19.979Z,3.10
2023-05-20T03:23:47.049Z,9.68
2023-05-20T03:26:14.334Z,5.18
2023-05-20T03:28:41.451Z,8.18
2023-05-20T03:31:09.274Z,5.13
2023-05-20T03:33:36.450Z,6.82
2023-05-20T03:36:04.347Z,10.05
2023-05-20T03:38:31.453Z,7.03
2023-05-20T03:40:58.656Z,4.72
2023-05-20T03:43:27.050Z,4.13
2023-05-20T03:45:54.142Z,3.03
2023-05-20T03:48:22.331Z,11.63
2023-05-20T03:50:49.823Z,8.43
2023-05-20T03:53:17.525Z,6.35
2023-05-20T03:55:44.680Z,4.70
2023-05-20T03:58:15.193Z,4.45
2023-05-20T04:00:42.517Z,6.35
2023-05-20T04:03:10.452Z,5.07
2023-05-20T04:05:37.728Z,5.28
2023-05-20T04:08:13.561Z,5.15
2023-05-20T04:10:42.737Z,5.50
2023-05-20T04:13:12.006Z,7.07
2023-05-20T04:15:39.415Z,14.07
2023-05-20T04:18:06.695Z,4.55
2023-05-20T04:20:34.148Z,4.97
2023-05-20T04:23:01.179Z,8.38
2023-05-20T04:25:28.299Z,4.65
2023-05-20T04:27:57.611Z,4.05
2023-05-20T04:30:25.360Z,5.38
2023-05-20T04:32:53.950Z,6.30
2023-05-20T04:35:21.266Z,5.20
2023-05-20T04:37:53.086Z,4.78
2023-05-20T04:40:21.136Z,5.95
2023-05-20T04:42:48.228Z,4.90
2023-05-20T04:45:16.033Z,5.93
2023-05-20T04:47:44.319Z,9.93
2023-05-20T04:50:11.980Z,6.28
2023-05-20T04:52:43.109Z,3.20
2023-05-20T04:55:12.305Z,5.10
2023-05-20T04:57:41.817Z,6.70
2023-05-20T05:00:11.172Z,9.85
2023-05-20T05:02:38.917Z,4.97
2023-05-20T05:05:06.845Z,7.60
2023-05-20T05:07:34.022Z,4.45
2023-05-20T05:10:01.140Z,5.10
2023-05-20T05:12:30.419Z,4.90
2023-05-20T05:14:58.785Z,5.28
2023-05-20T05:17:26.434Z,3.53
2023-05-20T05:19:53.567Z,8.65
2023-05-20T05:22:20.771Z,5.60
2023-05-20T05:24:49.402Z,17.77
2023-05-20T05:27:16.889Z,8.68
2023-05-20T05:29:43.987Z,6.50
2023-05-20T05:32:11.078Z,5.40
2023-05-20T05:34:38.124Z,6.72
2023-05-20T05:37:05.176Z,4.25
2023-05-20T05:39:34.537Z,5.63
2023-05-20T05:42:01.599Z,6.85
2023-05-20T05:44:28.748Z,4.45
2023-05-20T05:46:55.826Z,6.43
2023-05-20T05:49:22.929Z,4.05
2023-05-20T05:51:51.745Z,13.55
2023-05-20T05:54:20.960Z,4.88
2023-05-20T05:56:48.432Z,4.05
2023-05-20T05:59:16.071Z,8.77
2023-05-20T06:01:44.052Z,7.72
2023-05-20T06:04:11.628Z,4.28
2023-05-20T06:06:40.722Z,7.53
2023-05-20T06:09:07.785Z,4.15
2023-05-20T06:11:35.141Z,5.32
2023-05-20T06:14:02.922Z,4.38
2023-05-20T06:16:30.126Z,5.47
2023-05-20T06:19:00.269Z,6.18
2023-05-20T06:21:32.533Z,5.05
2023-05-20T06:23:59.634Z,5.93
2023-05-20T06:26:26.931Z,10.13
2023-05-20T06:28:54.131Z,5.80
2023-05-20T06:31:22.297Z,3.63
2023-05-20T06:33:49.799Z,5.07
2023-05-20T06:36:17.447Z,3.25
2023-05-20T06:38:44.570Z,5.88
2023-05-20T06:41:14.211Z,6.13
2023-05-20T06:43:41.321Z,4.65
2023-05-20T06:46:26.644Z,5.68
2023-05-20T06:49:03.089Z,7.50
2023-05-20T06:51:30.867Z,6.85
2023-05-20T06:53:58.009Z,2.88
2023-05-20T06:56:25.168Z,8.32
2023-05-20T06:58:52.318Z,3.33
2023-05-20T07:01:19.514Z,4.60
2023-05-20T07:03:47.694Z,8.20
2023-05-20T07:06:14.976Z,5.03
2023-05-20T07:08:42.076Z,7.22
2023-05-20T07:11:09.932Z,4.57
2023-05-20T07:13:37.689Z,5.30
2023-05-20T07:16:05.885Z,6.97
2023-05-20T07:18:32.965Z,3.42
2023-05-20T07:21:00.059Z,8.63
2023-05-20T07:23:34.792Z,11.65
2023-05-20T07:26:01.860Z,9.90
2023-05-20T07:28:29.430Z,6.03
2023-05-20T07:30:57.851Z,6.07
2023-05-20T07:33:27.704Z,7.28
2023-05-20T07:35:54.869Z,5.35
2023-05-20T07:38:23.096Z,6.55
2023-05-20T07:40:58.127Z,4.82
2023-05-20T07:43:25.408Z,8.35
2023-05-20T07:45:52.722Z,7.00
2023-05-20T07:48:19.853Z,4.97
2023-05-20T07:50:46.938Z,6.80
2023-05-20T07:53:14.321Z,4.57
2023-05-20T07:55:41.379Z,7.38
2023-05-20T07:58:08.895Z,8.43
2023-05-20T08:00:36.254Z,5.75
2023-05-20T08:03:08.369Z,4.63
2023-05-20T08:06:03.066Z,4.22
2023-05-20T08:08:30.787Z,7.80
2023-05-20T08:11:04.168Z,7.47
2023-05-20T08:13:32.234Z,4.53
2023-05-20T08:16:01.404Z,5.38
2023-05-20T08:18:29.000Z,4.88
2023-05-20T08:20:56.077Z,6.72
2023-05-20T08:23:23.191Z,7.65
2023-05-20T08:25:50.678Z,5.97
2023-05-20T08:28:19.443Z,6.13
2023-05-20T08:30:47.954Z,4.38
2023-05-20T08:33:15.483Z,7.55
2023-05-20T08:35:42.516Z,11.60
2023-05-20T08:38:09.556Z,5.07
2023-05-20T08:40:36.718Z,6.47
2023-05-20T08:43:04.641Z,6.97
2023-05-20T08:45:33.847Z,11.93
2023-05-20T08:48:06.473Z,3.40
2023-05-20T08:50:33.572Z,11.20
2023-05-20T08:53:01.215Z,6.03
2023-05-20T08:55:46.637Z,10.38
2023-05-20T08:58:15.807Z,5.97
2023-05-20T09:00:42.872Z,5.45
2023-05-20T09:03:10.075Z,7.93
2023-05-20T09:05:37.272Z,7.18
2023-05-20T09:08:06.643Z,5.57
2023-05-20T09:10:34.885Z,6.85
2023-05-20T09:13:05.304Z,4.57
2023-05-20T09:15:33.518Z,4.20
2023-05-20T09:18:04.376Z,5.88
2023-05-20T09:20:37.089Z,8.30
2023-05-20T09:25:36.688Z,6.03
2023-05-20T09:28:10.164Z,4.35
2023-05-20T09:30:37.225Z,8.98
2023-05-20T09:33:05.833Z,7.45
2023-05-20T09:35:37.499Z,4.38
2023-05-20T09:38:07.493Z,5.20
2023-05-20T09:40:37.568Z,7.75
2023-05-20T09:43:11.343Z,4.10
2023-05-20T09:45:38.855Z,6.60
2023-05-20T09:48:08.969Z,6.03
2023-05-20T09:50:36.897Z,5.68
2023-05-20T09:53:04.793Z,4.32
2023-05-20T09:55:32.984Z,6.53
2023-05-20T09:58:03.068Z,5.82
2023-05-20T10:00:30.681Z,9.00
2023-05-20T10:02:58.806Z,6.78
2023-05-20T10:05:37.556Z,5.45
2023-05-20T10:08:35.310Z,4.65
2023-05-20T10:11:23.036Z,4.60
2023-05-20T10:14:18.078Z,5.22
2023-05-20T10:16:55.398Z,10.82
2023-05-20T10:19:32.181Z,7.10
2023-05-20T10:22:07.166Z,11.35
2023-05-20T10:24:44.287Z,10.05
2023-05-20T10:27:16.971Z,5.22
2023-05-20T10:32:31.436Z,9.25
2023-05-20T10:35:09.093Z,4.47
2023-05-20T10:37:44.063Z,6.45
2023-05-20T10:40:16.096Z,3.65
2023-05-20T10:42:43.468Z,8.90
2023-05-20T10:45:12.103Z,7.20
2023-05-20T10:47:53.820Z,7.68
2023-05-20T10:50:35.426Z,8.02
2023-05-20T10:53:05.177Z,15.40
2023-05-20T10:55:40.659Z,4.53
2023-05-20T10:58:07.969Z,8.98
2023-05-20T11:00:39.085Z,8.80
2023-05-20T11:03:07.510Z,6.68
2023-05-20T11:05:35.300Z,5.93
2023-05-20T11:08:20.541Z,4.18
2023-05-20T11:10:57.251Z,6.85
2023-05-20T11:13:26.023Z,4.15
2023-05-20T11:15:54.163Z,6.15
2023-05-20T11:18:21.282Z,3.47
2023-05-20T11:20:48.474Z,4.88
2023-05-20T11:23:15.994Z,4.13
2023-05-20T11:25:43.148Z,5.50
2023-05-20T11:28:14.164Z,11.63
2023-05-20T11:30:43.247Z,4.97
2023-05-20T11:33:13.383Z,4.07
2023-05-20T11:35:51.355Z,8.43
2023-05-20T11:38:19.731Z,8.52
2023-05-20T11:40:51.869Z,3.70
2023-05-20T11:43:20.441Z,5.32
2023-05-20T11:45:52.671Z,6.00
2023-05-20T11:48:20.019Z,5.88
2023-05-20T11:50:48.219Z,7.50
2023-05-20T11:53:17.882Z,4.70
2023-05-20T11:55:53.848Z,4.28
2023-05-20T11:58:25.472Z,6.55
2023-05-20T12:01:01.752Z,4.75
2023-05-20T12:03:32.968Z,5.93
2023-05-20T12:06:03.693Z,5.55
2023-05-20T12:08:31.122Z,5.97
2023-05-20T12:10:58.180Z,8.20
2023-05-20T12:13:25.453Z,9.55
2023-05-20T12:15:52.514Z,6.60
2023-05-20T12:18:19.531Z,11.27
2023-05-20T12:20:46.571Z,10.10
2023-05-20T12:23:13.709Z,9.32
2023-05-20T12:25:40.861Z,14.95
2023-05-20T12:28:08.398Z,6.63
2023-05-20T12:30:35.843Z,5.53
2023-05-20T12:33:03.350Z,8.88
2023-05-20T12:35:41.084Z,7.30
2023-05-20T12:38:08.880Z,6.45
2023-05-20T12:40:36.725Z,5.93
2023-05-20T12:43:05.135Z,6.25
2023-05-20T12:45:32.264Z,5.45
2023-05-20T12:47:59.535Z,6.30
2023-05-20T12:50:27.154Z,6.95
2023-05-20T12:52:54.215Z,6.45
2023-05-20T12:55:21.328Z,6.85
2023-05-20T12:57:48.471Z,5.85
2023-05-20T13:00:16.526Z,5.90
2023-05-20T13:02:43.728Z,6.38
2023-05-20T13:05:11.455Z,5.90
2023-05-20T13:07:38.601Z,12.30
2023-05-20T13:10:07.036Z,10.32
2023-05-20T13:12:35.194Z,7.60
2023-05-20T13:15:03.224Z,7.70
2023-05-20T13:17:30.911Z,9.63
2023-05-20T13:19:58.298Z,6.00
2023-05-20T13:22:25.605Z,7.43
2023-05-20T13:24:52.654Z,5.70
2023-05-20T13:27:19.682Z,7.72
2023-05-20T13:29:46.852Z,7.47
2023-05-20T13:32:13.894Z,5.90
2023-05-20T13:34:41.121Z,8.07
2023-05-20T13:37:08.285Z,7.30
2023-05-20T13:39:36.305Z,6.65
2023-05-20T13:42:04.251Z,6.97
2023-05-20T13:44:32.668Z,6.35
2023-05-20T13:47:00.484Z,7.57
2023-05-20T13:49:27.637Z,5.70
2023-05-20T13:51:54.744Z,13.65
2023-05-20T13:54:22.106Z,7.78
2023-05-20T13:56:49.337Z,5.85
2023-05-20T13:59:16.535Z,6.38
2023-05-20T14:01:45.278Z,9.02
2023-05-20T14:04:12.933Z,5.25
2023-05-20T14:06:40.416Z,5.15
2023-05-20T14:09:09.100Z,6.07
2023-05-20T14:11:36.722Z,8.68
2023-05-20T14:14:03.817Z,9.32
2023-05-20T14:16:31.725Z,6.93
2023-05-20T14:18:58.925Z,6.97
2023-05-20T14:21:26.067Z,9.65
2023-05-20T14:23:53.138Z,8.40
2023-05-20T14:26:20.167Z,6.30
2023-05-20T14:28:47.148Z,6.88
2023-05-20T14:31:14.406Z,6.80
2023-05-20T14:33:41.439Z,7.35
2023-05-20T14:36:08.544Z,8.25
2023-05-20T14:38:35.642Z,7.57
2023-05-20T14:41:02.638Z,4.55
2023-05-20T14:43:31.505Z,9.05
2023-05-20T14:45:58.759Z,5.38
2023-05-20T14:48:25.777Z,6.93
2023-05-20T14:50:52.766Z,8.93
2023-05-20T14:53:19.859Z,7.53
2023-05-20T14:55:46.940Z,6.78
2023-05-20T14:58:14.059Z,6.35
2023-05-20T15:00:41.629Z,10.48
2023-05-20T15:03:08.941Z,5.65
2023-05-20T15:05:36.195Z,6.28
2023-05-20T15:08:03.744Z,5.80
2023-05-20T15:10:30.882Z,8.32
2023-05-20T15:12:57.976Z,7.97
2023-05-20T15:15:25.264Z,8.02
2023-05-20T15:17:52.322Z,7.63
2023-05-20T15:20:19.446Z,7.03
2023-05-20T15:22:48.316Z,5.97
2023-05-20T15:25:15.461Z,6.68
2023-05-20T15:27:42.806Z,5.15
2023-05-20T15:30:10.461Z,6.00
2023-05-20T15:32:37.887Z,6.18
2023-05-20T15:35:05.937Z,8.65
2023-05-20T15:37:33.001Z,5.82
2023-05-20T15:40:00.095Z,9.68
2023-05-20T15:42:27.149Z,6.75
2023-05-20T15:44:54.170Z,7.55
2023-05-20T15:47:21.392Z,6.38
2023-05-20T15:49:48.580Z,7.53
2023-05-20T15:52:15.720Z,8.02
2023-05-20T15:54:42.819Z,8.45
2023-05-20T15:57:10.165Z,6.70
2023-05-20T15:59:37.230Z,10.82
2023-05-20T16:02:04.380Z,8.65
2023-05-20T16:04:32.391Z,7.15
2023-05-20T16:07:01.202Z,8.43
2023-05-20T16:09:28.224Z,9.63
2023-05-20T16:11:56.096Z,7.40
2023-05-20T16:14:23.238Z,6.60
2023-05-20T16:16:50.637Z,7.93
2023-05-20T16:19:17.755Z,8.73
2023-05-20T16:21:45.142Z,6.85
2023-05-20T16:24:12.466Z,10.70
2023-05-20T16:26:39.512Z,8.68
2023-05-20T16:29:06.597Z,9.02
2023-05-20T16:31:33.708Z,6.55
2023-05-20T16:34:00.818Z,9.75
2023-05-20T16:36:27.899Z,7.80
2023-05-20T16:38:54.961Z,7.95
2023-05-20T16:41:22.790Z,8.95
2023-05-20T16:43:49.804Z,6.85
2023-05-20T16:46:17.134Z,7.38
2023-05-20T16:48:44.177Z,8.73
2023-05-20T16:51:11.192Z,7.93
2023-05-20T16:53:38.249Z,7.57
2023-05-20T16:56:08.230Z,9.38
2023-05-20T16:58:35.615Z,9.20
2023-05-20T17:01:02.779Z,10.35
2023-05-20T17:03:29.852Z,8.45
2023-05-20T17:05:57.153Z,8.32
2023-05-20T17:08:24.169Z,8.35
2023-05-20T17:10:53.985Z,8.40
2023-05-20T17:13:21.826Z,9.95
2023-05-20T17:15:48.835Z,8.82
2023-05-20T17:18:15.903Z,10.00
2023-05-20T17:20:43.328Z,8.88
2023-05-20T17:23:10.600Z,9.93
2023-05-20T17:25:37.630Z,11.73
2023-05-20T17:28:04.727Z,9.50
2023-05-20T17:30:32.055Z,12.23
2023-05-20T17:32:59.211Z,9.20
2023-05-20T17:35:26.371Z,7.70
2023-05-20T17:37:54.908Z,8.20
2023-05-20T17:40:22.203Z,9.02
2023-05-20T17:42:49.271Z,10.63
2023-05-20T17:45:16.541Z,8.32
2023-05-20T17:47:43.617Z,8.25
2023-05-20T17:50:11.269Z,15.32
2023-05-20T17:52:38.292Z,8.57
2023-05-20T17:55:06.597Z,11.45
2023-05-20T17:57:34.020Z,10.23
2023-05-20T18:00:02.202Z,9.45
2023-05-20T18:02:32.233Z,9.93
2023-05-20T18:04:59.415Z,8.05
2023-05-20T18:07:26.980Z,13.93
2023-05-20T18:09:54.323Z,12.43
2023-05-20T18:12:21.378Z,10.75
2023-05-20T18:14:48.579Z,8.77
2023-05-20T18:17:15.610Z,10.85
2023-05-20T18:19:42.628Z,14.30
2023-05-20T18:22:09.920Z,9.68
2023-05-20T18:24:36.951Z,20.98
2023-05-20T18:27:04.198Z,12.38
2023-05-20T18:29:31.292Z,13.63
2023-05-20T18:31:58.346Z,10.15
2023-05-20T18:34:25.715Z,12.57
2023-05-20T18:36:52.824Z,13.45
2023-05-20T18:39:20.877Z,10.40
2023-05-20T18:41:48.382Z,12.77
2023-05-20T18:44:16.642Z,13.10
2023-05-20T18:46:44.114Z,11.13
2023-05-20T18:49:11.382Z,14.52
2023-05-20T18:51:41.646Z,12.77
2023-05-20T18:54:08.816Z,16.20
2023-05-20T18:56:36.298Z,15.45
2023-05-20T18:59:03.397Z,10.88
2023-05-20T19:01:31.070Z,15.88
2023-05-20T19:03:58.197Z,25.40
2023-05-20T19:06:25.723Z,11.68
2023-05-20T19:08:52.856Z,13.50
2023-05-20T19:11:20.080Z,16.88
2023-05-20T19:13:47.106Z,16.60
2023-05-20T19:16:14.202Z,23.10
2023-05-20T19:18:41.373Z,14.88
2023-05-20T19:21:08.450Z,13.20
2023-05-20T19:23:35.602Z,12.75
2023-05-20T19:26:02.761Z,12.70
2023-05-20T19:28:29.952Z,12.15
2023-05-20T19:30:57.077Z,22.77
2023-05-20T19:33:24.281Z,13.25
2023-05-20T19:35:51.393Z,13.18
2023-05-20T19:38:18.653Z,15.43
2023-05-20T19:40:46.936Z,14.25
2023-05-20T19:43:14.240Z,13.63
2023-05-20T19:45:41.463Z,15.35
2023-05-20T19:48:09.264Z,13.45
2023-05-20T19:50:36.452Z,15.60
2023-05-20T19:53:06.331Z,15.00
2023-05-20T19:55:35.095Z,13.63
2023-05-20T19:58:02.492Z,17.05
2023-05-20T20:00:29.599Z,14.68
2023-05-20T20:02:57.669Z,20.10
2023-05-20T20:05:25.990Z,14.98
2023-05-20T20:07:53.174Z,22.55
2023-05-20T20:10:20.286Z,16.83
2023-05-20T20:12:47.448Z,17.83
2023-05-20T20:15:14.613Z,18.50
2023-05-20T20:17:46.038Z,15.40
2023-05-20T20:20:14.054Z,16.63
2023-05-20T20:22:41.944Z,16.63
2023-05-20T20:25:09.238Z,17.38
2023-05-20T20:27:38.463Z,17.67
2023-05-20T20:30:06.189Z,14.20
2023-05-20T20:32:35.011Z,18.70
2023-05-20T20:35:03.561Z,20.02
2023-05-20T20:37:30.716Z,20.77
2023-05-20T20:39:57.749Z,17.83
2023-05-20T20:42:24.780Z,20.55
2023-05-20T20:44:52.434Z,17.70
2023-05-20T20:47:19.598Z,20.73
2023-05-20T20:49:46.665Z,18.35
2023-05-20T20:52:13.829Z,18.95
2023-05-20T20:54:43.107Z,19.30
2023-05-20T20:57:11.380Z,16.05
2023-05-20T20:59:38.456Z,19.83
2023-05-20T21:02:06.502Z,18.65
2023-05-20T21:04:33.669Z,20.25
2023-05-20T21:07:02.031Z,21.75
2023-05-20T21:09:29.387Z,18.90
2023-05-20T21:11:57.090Z,24.27
2023-05-20T21:14:25.206Z,20.52
2023-05-20T21:16:52.299Z,20.35
2023-05-20T21:19:19.503Z,26.48
2023-05-20T21:21:46.665Z,29.10
2023-05-20T21:24:13.738Z,27.73
2023-05-20T21:26:40.785Z,19.77
2023-05-20T21:29:09.888Z,18.85
2023-05-20T21:31:36.978Z,20.48
2023-05-20T21:34:04.062Z,22.23
2023-05-20T21:36:32.274Z,21.30
2023-05-20T21:38:59.333Z,21.63
2023-05-20T21:41:27.116Z,24.08
2023-05-20T21:43:54.309Z,18.23
2023-05-20T21:46:21.474Z,19.83
2023-05-20T21:48:48.591Z,22.13
2023-05-20T21:51:15.779Z,18.85
2023-05-20T21:53:43.019Z,25.88
2023-05-20T21:56:10.093Z,20.13
2023-05-20T21:58:40.985Z,21.35
2023-05-20T22:01:09.692Z,18.30
2023-05-20T22:03:38.155Z,18.90
2023-05-20T22:06:06.440Z,20.52
2023-05-20T22:08:36.402Z,19.42
2023-05-20T22:11:07.342Z,26.42
2023-05-20T22:13:35.524Z,21.27
2023-05-20T22:16:04.902Z,19.60
2023-05-20T22:18:32.496Z,20.60
2023-05-20T22:21:00.976Z,17.83
2023-05-20T22:23:28.474Z,20.02
2023-05-20T22:25:56.313Z,21.05
2023-05-20T22:28:23.763Z,27.38
2023-05-20T22:30:51.497Z,22.83
2023-05-20T22:33:18.682Z,22.35
2023-05-20T22:35:45.930Z,26.08
2023-05-20T22:38:12.981Z,20.17
2023-05-20T22:40:40.011Z,17.02
2023-05-20T22:43:07.182Z,20.55
2023-05-20T22:45:34.357Z,24.08
2023-05-20T22:48:02.024Z,24.73
2023-05-20T22:50:29.165Z,22.20
2023-05-20T22:52:56.323Z,31.30
2023-05-20T22:55:23.895Z,27.75
2023-05-20T22:57:51.357Z,26.52
2023-05-20T23:00:18.762Z,20.02
2023-05-20T23:02:49.493Z,20.05
2023-05-20T23:05:16.706Z,19.80
2023-05-20T23:07:44.740Z,24.05
2023-05-20T23:10:11.893Z,19.35
2023-05-20T23:12:39.116Z,23.63
2023-05-20T23:15:06.835Z,23.63
2023-05-20T23:17:33.964Z,21.65
2023-05-20T23:20:01.093Z,31.08
2023-05-20T23:22:28.221Z,23.77
2023-05-20T23:24:55.295Z,19.77
2023-05-20T23:27:22.377Z,23.83
2023-05-20T23:29:49.448Z,25.42
2023-05-20T23:32:16.469Z,19.25
2023-05-20T23:34:43.545Z,22.40
2023-05-20T23:37:10.581Z,21.90
2023-05-20T23:39:37.817Z,19.33
2023-05-20T23:42:05.306Z,20.27
2023-05-20T23:44:32.331Z,26.40
2023-05-20T23:46:59.417Z,24.67
2023-05-20T23:49:27.193Z,23.80
2023-05-20T23:51:54.324Z,24.63
2023-05-20T23:54:22.724Z,23.05
2023-05-20T23:56:49.837Z,24.05
2023-05-20T23:59:17.105Z,19.13
